createdAt,value
2017-01-20T00:00:36.891Z,1037.9
2017-01-20T00:01:39.841Z,1037.9
2017-01-20T00:02:43.296Z,1037.9
2017-01-20T00:03:46.242Z,1037.8
2017-01-20T00:04:49.189Z,1037.8
2017-01-20T00:05:52.133Z,1037.8
2017-01-20T00:06:55.089Z,1037.8
2017-01-20T00:07:58.536Z,1037.8
2017-01-20T00:09:01.480Z,1037.8
2017-01-20T00:10:04.448Z,1037.8
2017-01-20T00:11:07.396Z,1037.7
2017-01-20T00:12:10.847Z,1037.7
2017-01-20T00:13:13.804Z,1037.7
2017-01-20T00:14:16.743Z,1037.7
2017-01-20T00:15:19.693Z,1037.7
2017-01-20T00:16:22.640Z,1037.7
2017-01-20T00:17:25.775Z,1037.8
2017-01-20T00:18:29.221Z,1037.8
2017-01-20T00:19:32.190Z,1037.8
2017-01-20T00:20:35.137Z,1037.8
2017-01-20T00:21:38.252Z,1037.7
2017-01-20T00:22:41.196Z,1037.8
2017-01-20T00:23:44.410Z,1037.7
2017-01-20T00:24:47.358Z,1037.7
2017-01-20T00:25:50.297Z,1037.7
2017-01-20T00:26:53.740Z,1037.7
2017-01-20T00:27:56.692Z,1037.7
2017-01-20T00:28:59.631Z,1037.6
2017-01-20T00:30:02.577Z,1037.6
2017-01-20T00:31:06.023Z,1037.6
2017-01-20T00:32:08.964Z,1037.6
2017-01-20T00:34:14.818Z,1037.6
2017-01-20T00:35:18.267Z,1037.6
2017-01-20T00:36:21.213Z,1037.6
2017-01-20T00:37:24.223Z,1037.6
2017-01-20T00:38:27.165Z,1037.6
2017-01-20T00:39:30.118Z,1037.6
2017-01-20T00:40:33.570Z,1037.6
2017-01-20T00:41:36.521Z,1037.6
2017-01-20T00:42:39.468Z,1037.5
2017-01-20T00:43:42.413Z,1037.5
2017-01-20T00:44:45.865Z,1037.5
2017-01-20T00:45:48.811Z,1037.5
2017-01-20T00:46:51.820Z,1037.4
2017-01-20T00:47:54.763Z,1037.5
2017-01-20T00:48:57.707Z,1037.5
2017-01-20T00:50:01.154Z,1037.5
2017-01-20T00:51:04.101Z,1037.4
2017-01-20T00:52:07.043Z,1037.4
2017-01-20T00:53:10.171Z,1037.4
2017-01-20T00:54:13.123Z,1037.4
2017-01-20T00:55:16.074Z,1037.4
2017-01-20T00:56:19.525Z,1037.4
2017-01-20T00:57:22.465Z,1037.4
2017-01-20T00:58:25.405Z,1037.3
2017-01-20T00:59:28.345Z,1037.3
2017-01-20T01:01:34.703Z,1037.4
2017-01-20T01:02:37.649Z,1037.4
2017-01-20T01:03:41.099Z,1037.4
2017-01-20T01:04:44.055Z,1037.5
2017-01-20T01:05:46.997Z,1037.4
2017-01-20T01:06:49.950Z,1037.4
2017-01-20T01:07:52.894Z,1037.4
2017-01-20T01:08:56.344Z,1037.4
2017-01-20T01:09:59.291Z,1037.3
2017-01-20T01:11:02.236Z,1037.4
2017-01-20T01:12:05.183Z,1037.5
2017-01-20T01:13:08.631Z,1037.5
2017-01-20T01:14:11.570Z,1037.5
2017-01-20T01:15:14.513Z,1037.6
2017-01-20T01:16:17.458Z,1037.5
2017-01-20T01:17:20.909Z,1037.4
2017-01-20T01:18:23.855Z,1037.4
2017-01-20T01:19:26.863Z,1037.5
2017-01-20T01:20:29.803Z,1037.5
2017-01-20T01:21:32.753Z,1037.4
2017-01-20T01:22:36.202Z,1037.4
2017-01-20T01:23:39.142Z,1037.4
2017-01-20T01:25:45.494Z,1037.3
2017-01-20T01:26:48.435Z,1037.4
2017-01-20T01:27:51.384Z,1037.4
2017-01-20T01:28:54.326Z,1037.5
2017-01-20T01:29:57.773Z,1037.4
2017-01-20T01:31:00.717Z,1037.4
2017-01-20T01:32:03.726Z,1037.4
2017-01-20T01:33:06.677Z,1037.4
2017-01-20T01:34:09.621Z,1037.4
2017-01-20T01:36:15.975Z,1037.3
2017-01-20T01:37:18.919Z,1037.4
2017-01-20T01:38:21.863Z,1037.4
2017-01-20T01:39:25.317Z,1037.4
2017-01-20T01:40:28.264Z,1037.4
2017-01-20T01:41:31.219Z,1037.5
2017-01-20T01:42:34.193Z,1037.4
2017-01-20T01:43:37.645Z,1037.4
2017-01-20T01:44:40.592Z,1037.4
2017-01-20T01:45:43.542Z,1037.5
2017-01-20T01:46:46.487Z,1037.4
2017-01-20T01:47:49.934Z,1037.4
2017-01-20T01:48:52.874Z,1037.4
2017-01-20T01:49:55.814Z,1037.4
2017-01-20T01:50:58.757Z,1037.4
2017-01-20T01:52:02.209Z,1037.3
2017-01-20T01:53:05.157Z,1037.2
2017-01-20T01:54:08.100Z,1037.3
2017-01-20T01:55:11.047Z,1037.3
2017-01-20T01:56:13.992Z,1037.2
2017-01-20T01:57:17.440Z,1037.2
2017-01-20T01:58:20.385Z,1037.2
2017-01-20T01:59:23.327Z,1037.2
2017-01-20T02:00:26.270Z,1037.3
2017-01-20T02:01:29.716Z,1037.3
2017-01-20T02:02:32.664Z,1037.3
2017-01-20T02:03:35.619Z,1037.3
2017-01-20T02:04:38.563Z,1037.3
2017-01-20T02:05:42.014Z,1037.2
2017-01-20T02:06:44.959Z,1037.3
2017-01-20T02:07:47.912Z,1037.4
2017-01-20T02:08:50.854Z,1037.3
2017-01-20T02:10:57.208Z,1037.3
2017-01-20T02:12:00.153Z,1037.3
2017-01-20T02:13:03.266Z,1037.3
2017-01-20T02:14:06.206Z,1037.3
2017-01-20T02:15:09.655Z,1037.3
2017-01-20T02:17:15.507Z,1037.2
2017-01-20T02:18:18.450Z,1037.3
2017-01-20T02:19:21.892Z,1037.2
2017-01-20T02:20:24.837Z,1037.3
2017-01-20T02:21:27.785Z,1037.2
2017-01-20T02:22:30.728Z,1037.2
2017-01-20T02:23:34.175Z,1037.3
2017-01-20T02:24:37.123Z,1037.3
2017-01-20T02:25:40.075Z,1037.3
2017-01-20T02:26:43.019Z,1037.3
2017-01-20T02:27:46.466Z,1037.3
2017-01-20T02:28:49.409Z,1037.3
2017-01-20T02:29:52.349Z,1037.3
2017-01-20T02:30:55.298Z,1037.3
2017-01-20T02:31:58.744Z,1037.3
2017-01-20T02:33:01.687Z,1037.3
2017-01-20T02:34:04.631Z,1037.3
2017-01-20T02:35:07.571Z,1037.2
2017-01-20T02:36:11.018Z,1037.2
2017-01-20T02:37:13.961Z,1037.2
2017-01-20T02:38:16.904Z,1037.2
2017-01-20T02:39:19.845Z,1037.1
2017-01-20T02:40:23.296Z,1037.1
2017-01-20T02:42:29.146Z,1037.1
2017-01-20T02:43:32.593Z,1037.1
2017-01-20T02:44:35.542Z,1037.1
2017-01-20T02:45:38.480Z,1037.1
2017-01-20T02:46:41.420Z,1037.2
2017-01-20T02:47:44.871Z,1037.2
2017-01-20T02:48:47.815Z,1037.2
2017-01-20T02:49:50.758Z,1037.1
2017-01-20T02:50:53.701Z,1037.1
2017-01-20T02:51:57.145Z,1037.1
2017-01-20T02:53:00.096Z,1037.1
2017-01-20T02:54:03.040Z,1037
2017-01-20T02:55:05.988Z,1037.1
2017-01-20T02:56:09.434Z,1037.1
2017-01-20T02:57:12.379Z,1037.1
2017-01-20T02:58:15.330Z,1037.1
2017-01-20T02:59:18.270Z,1037.2
2017-01-20T03:00:21.282Z,1037.1
2017-01-20T03:01:24.733Z,1037.2
2017-01-20T03:02:27.681Z,1037.1
2017-01-20T03:03:30.624Z,1037.1
2017-01-20T03:04:33.571Z,1037.1
2017-01-20T03:05:37.019Z,1037
2017-01-20T03:06:40.034Z,1037.1
2017-01-20T03:07:42.979Z,1037.1
2017-01-20T03:08:45.986Z,1037.1
2017-01-20T03:09:48.927Z,1037.1
2017-01-20T03:10:52.372Z,1037
2017-01-20T03:11:55.313Z,1037.1
2017-01-20T03:12:58.256Z,1037.1
2017-01-20T03:14:01.704Z,1037
2017-01-20T03:15:04.651Z,1037
2017-01-20T03:16:07.598Z,1037
2017-01-20T03:17:10.546Z,1037
2017-01-20T03:18:13.993Z,1037
2017-01-20T03:19:16.936Z,1037
2017-01-20T03:20:19.881Z,1036.9
2017-01-20T03:21:22.830Z,1036.9
2017-01-20T03:22:26.279Z,1036.9
2017-01-20T03:23:29.255Z,1036.9
2017-01-20T03:25:35.106Z,1036.9
2017-01-20T03:26:38.553Z,1036.9
2017-01-20T03:27:41.497Z,1036.9
2017-01-20T03:28:44.440Z,1036.9
2017-01-20T03:29:47.384Z,1036.9
2017-01-20T03:30:50.835Z,1036.9
2017-01-20T03:31:53.790Z,1037
2017-01-20T03:32:56.736Z,1037
2017-01-20T03:33:59.683Z,1037
2017-01-20T03:35:03.136Z,1036.9
2017-01-20T03:36:06.078Z,1037
2017-01-20T03:37:09.028Z,1037
2017-01-20T03:38:11.972Z,1037.1
2017-01-20T03:39:15.419Z,1037.1
2017-01-20T03:40:18.363Z,1037.1
2017-01-20T03:41:21.314Z,1037.1
2017-01-20T03:42:24.266Z,1037.1
2017-01-20T03:43:27.713Z,1037.2
2017-01-20T03:44:30.661Z,1037.1
2017-01-20T03:45:33.605Z,1037.1
2017-01-20T03:46:36.548Z,1037.1
2017-01-20T03:47:39.562Z,1037
2017-01-20T03:48:43.007Z,1037
2017-01-20T03:49:45.950Z,1037.1
2017-01-20T03:50:48.890Z,1037
2017-01-20T03:51:52.339Z,1037
2017-01-20T03:52:55.289Z,1037
2017-01-20T03:53:58.237Z,1037.1
2017-01-20T03:55:01.190Z,1037.1
2017-01-20T03:56:04.138Z,1037.1
2017-01-20T03:57:07.588Z,1037.1
2017-01-20T03:58:10.531Z,1037.1
2017-01-20T03:59:13.479Z,1037.1
2017-01-20T04:00:16.425Z,1037.1
2017-01-20T04:01:19.874Z,1037.1
2017-01-20T04:02:22.821Z,1037.1
2017-01-20T04:03:25.772Z,1037
2017-01-20T04:04:28.719Z,1037
2017-01-20T04:05:32.167Z,1037
2017-01-20T04:06:35.111Z,1037.1
2017-01-20T04:07:38.062Z,1036.9
2017-01-20T04:08:41.513Z,1037
2017-01-20T04:09:44.456Z,1036.9
2017-01-20T04:10:47.401Z,1036.9
2017-01-20T04:11:50.351Z,1036.9
2017-01-20T04:12:53.795Z,1036.9
2017-01-20T04:13:56.742Z,1036.8
2017-01-20T04:14:59.686Z,1036.9
2017-01-20T04:16:02.629Z,1036.8
2017-01-20T04:17:06.078Z,1036.9
2017-01-20T04:18:09.023Z,1037
2017-01-20T04:19:11.966Z,1036.9
2017-01-20T04:20:14.918Z,1036.9
2017-01-20T04:21:18.373Z,1037
2017-01-20T04:23:24.228Z,1037
2017-01-20T04:24:27.176Z,1036.9
2017-01-20T04:25:30.627Z,1036.9
2017-01-20T04:27:36.490Z,1036.8
2017-01-20T04:28:39.428Z,1036.8
2017-01-20T04:29:42.894Z,1036.8
2017-01-20T04:30:45.851Z,1036.8
2017-01-20T04:31:48.798Z,1036.8
2017-01-20T04:32:51.745Z,1036.8
2017-01-20T04:33:55.193Z,1036.8
2017-01-20T04:34:58.136Z,1036.8
2017-01-20T04:36:01.087Z,1036.7
2017-01-20T04:37:04.038Z,1036.7
2017-01-20T04:38:07.485Z,1036.7
2017-01-20T04:39:10.429Z,1036.7
2017-01-20T04:40:13.378Z,1036.7
2017-01-20T04:41:16.828Z,1036.7
2017-01-20T04:42:19.777Z,1036.7
2017-01-20T04:43:22.719Z,1036.7
2017-01-20T04:44:25.662Z,1036.7
2017-01-20T04:45:29.113Z,1036.8
2017-01-20T04:46:32.062Z,1036.7
2017-01-20T04:47:35.009Z,1036.8
2017-01-20T04:48:37.948Z,1036.8
2017-01-20T04:49:41.393Z,1036.8
2017-01-20T04:50:44.367Z,1036.8
2017-01-20T04:51:47.315Z,1036.8
2017-01-20T04:52:50.264Z,1036.8
2017-01-20T04:53:53.717Z,1036.8
2017-01-20T04:54:56.662Z,1036.8
2017-01-20T04:55:59.613Z,1036.8
2017-01-20T04:57:02.561Z,1036.8
2017-01-20T04:58:06.011Z,1036.8
2017-01-20T04:59:08.992Z,1036.8
2017-01-20T05:00:11.939Z,1036.7
2017-01-20T05:01:14.882Z,1036.7
2017-01-20T05:02:18.335Z,1036.8
2017-01-20T05:03:21.277Z,1036.8
2017-01-20T05:04:24.229Z,1036.8
2017-01-20T05:05:27.177Z,1036.8
2017-01-20T05:06:30.627Z,1036.8
2017-01-20T05:07:33.572Z,1036.7
2017-01-20T05:08:36.521Z,1036.8
2017-01-20T05:09:39.488Z,1036.8
2017-01-20T05:10:42.934Z,1036.7
2017-01-20T05:11:45.883Z,1036.8
2017-01-20T05:12:48.828Z,1036.8
2017-01-20T05:13:51.773Z,1036.7
2017-01-20T05:14:55.226Z,1036.7
2017-01-20T05:15:58.168Z,1036.7
2017-01-20T05:17:01.116Z,1036.7
2017-01-20T05:19:07.481Z,1036.7
2017-01-20T05:20:10.423Z,1036.7
2017-01-20T05:21:13.369Z,1036.7
2017-01-20T05:22:16.317Z,1036.7
2017-01-20T05:23:19.763Z,1036.7
2017-01-20T05:24:22.706Z,1036.6
2017-01-20T05:25:25.650Z,1036.6
2017-01-20T05:26:28.594Z,1036.6
2017-01-20T05:27:33.401Z,1036.6
2017-01-20T05:28:34.836Z,1036.6
2017-01-20T05:29:38.283Z,1036.6
2017-01-20T05:30:41.227Z,1036.7
2017-01-20T05:31:44.175Z,1036.6
2017-01-20T05:32:47.117Z,1036.6
2017-01-20T05:33:50.569Z,1036.6
2017-01-20T05:34:53.514Z,1036.7
2017-01-20T05:35:56.460Z,1036.7
2017-01-20T05:36:59.413Z,1036.6
2017-01-20T05:39:05.774Z,1036.6
2017-01-20T05:40:08.719Z,1036.6
2017-01-20T05:41:11.665Z,1036.7
2017-01-20T05:42:15.115Z,1036.7
2017-01-20T05:43:18.062Z,1036.7
2017-01-20T05:44:21.006Z,1036.6
2017-01-20T05:45:23.953Z,1036.7
2017-01-20T05:46:27.406Z,1036.7
2017-01-20T05:47:30.354Z,1036.6
2017-01-20T05:48:33.304Z,1036.7
2017-01-20T05:49:36.752Z,1036.8
2017-01-20T05:50:39.701Z,1036.8
2017-01-20T05:51:42.647Z,1036.8
2017-01-20T05:52:45.592Z,1036.8
2017-01-20T05:53:49.043Z,1036.8
2017-01-20T05:54:51.990Z,1036.8
2017-01-20T05:56:57.842Z,1036.8
2017-01-20T05:58:01.297Z,1036.8
2017-01-20T05:59:04.312Z,1036.8
2017-01-20T06:00:07.284Z,1036.7
2017-01-20T06:01:10.229Z,1036.7
2017-01-20T06:02:13.184Z,1036.7
2017-01-20T06:03:16.634Z,1036.6
2017-01-20T06:04:19.583Z,1036.7
2017-01-20T06:05:22.528Z,1036.7
2017-01-20T06:07:28.886Z,1036.7
2017-01-20T06:08:31.834Z,1036.7
2017-01-20T06:09:34.779Z,1036.7
2017-01-20T06:10:38.228Z,1036.7
2017-01-20T06:11:41.169Z,1036.6
2017-01-20T06:12:44.113Z,1036.7
2017-01-20T06:13:47.066Z,1036.7
2017-01-20T06:14:50.520Z,1036.7
2017-01-20T06:15:53.463Z,1036.7
2017-01-20T06:16:56.473Z,1036.7
2017-01-20T06:17:59.420Z,1036.8
2017-01-20T06:19:02.872Z,1036.8
2017-01-20T06:20:05.817Z,1036.8
2017-01-20T06:21:08.763Z,1036.8
2017-01-20T06:22:11.712Z,1036.8
2017-01-20T06:23:15.162Z,1036.7
2017-01-20T06:24:18.112Z,1036.7
2017-01-20T06:25:21.059Z,1036.8
2017-01-20T06:26:24.072Z,1036.8
2017-01-20T06:27:27.522Z,1036.8
2017-01-20T06:28:30.464Z,1036.8
2017-01-20T06:29:33.408Z,1036.7
2017-01-20T06:30:36.351Z,1036.7
2017-01-20T06:31:39.795Z,1036.8
2017-01-20T06:32:42.740Z,1036.8
2017-01-20T06:33:45.683Z,1036.7
2017-01-20T06:34:48.632Z,1036.7
2017-01-20T06:35:52.079Z,1036.7
2017-01-20T06:36:55.026Z,1036.7
2017-01-20T06:37:57.976Z,1036.8
2017-01-20T06:39:01.434Z,1036.8
2017-01-20T06:40:04.381Z,1036.8
2017-01-20T06:41:07.325Z,1036.9
2017-01-20T06:42:10.268Z,1036.8
2017-01-20T06:43:13.274Z,1036.8
2017-01-20T06:44:16.726Z,1036.8
2017-01-20T06:45:19.685Z,1036.8
2017-01-20T06:46:22.633Z,1036.9
2017-01-20T06:47:25.668Z,1036.9
2017-01-20T06:48:29.112Z,1036.9
2017-01-20T06:49:32.060Z,1036.9
2017-01-20T06:50:35.009Z,1036.9
2017-01-20T06:51:37.953Z,1036.8
2017-01-20T06:52:41.404Z,1036.9
2017-01-20T06:53:44.351Z,1036.8
2017-01-20T06:54:47.296Z,1036.9
2017-01-20T06:55:50.248Z,1036.9
2017-01-20T06:56:53.708Z,1036.9
2017-01-20T06:57:56.662Z,1036.9
2017-01-20T06:58:59.609Z,1036.9
2017-01-20T07:00:03.057Z,1036.8
2017-01-20T07:02:08.914Z,1036.8
2017-01-20T07:03:11.858Z,1036.7
2017-01-20T07:04:15.311Z,1036.8
2017-01-20T07:05:18.253Z,1036.8
2017-01-20T07:06:21.200Z,1036.8
2017-01-20T07:07:24.152Z,1036.8
2017-01-20T07:08:27.598Z,1036.9
2017-01-20T07:09:30.546Z,1036.9
2017-01-20T07:10:33.664Z,1036.9
2017-01-20T07:11:36.607Z,1036.9
2017-01-20T07:12:40.057Z,1036.9
2017-01-20T07:13:43.002Z,1036.8
2017-01-20T07:14:45.957Z,1036.9
2017-01-20T07:15:48.907Z,1036.9
2017-01-20T07:16:52.354Z,1036.9
2017-01-20T07:17:55.298Z,1036.9
2017-01-20T07:18:58.246Z,1036.9
2017-01-20T07:20:01.193Z,1036.8
2017-01-20T07:21:04.646Z,1036.8
2017-01-20T07:22:07.597Z,1036.9
2017-01-20T07:23:10.542Z,1036.9
2017-01-20T07:24:13.571Z,1036.9
2017-01-20T07:25:16.586Z,1036.9
2017-01-20T07:26:20.039Z,1036.8
2017-01-20T07:27:22.990Z,1036.9
2017-01-20T07:28:25.934Z,1036.9
2017-01-20T07:29:29.090Z,1036.9
2017-01-20T07:30:32.036Z,1036.8
2017-01-20T07:32:38.390Z,1036.9
2017-01-20T07:33:41.333Z,1036.9
2017-01-20T07:34:44.782Z,1036.9
2017-01-20T07:35:47.731Z,1036.9
2017-01-20T07:36:50.742Z,1036.9
2017-01-20T07:37:53.697Z,1036.9
2017-01-20T07:38:57.149Z,1036.9
2017-01-20T07:40:00.100Z,1036.9
2017-01-20T07:41:03.044Z,1037
2017-01-20T07:42:05.999Z,1037
2017-01-20T07:43:09.452Z,1037
2017-01-20T07:44:12.402Z,1037
2017-01-20T07:45:15.345Z,1037.1
2017-01-20T07:46:18.797Z,1037.1
2017-01-20T07:47:21.768Z,1037
2017-01-20T07:48:24.707Z,1037
2017-01-20T07:49:27.655Z,1037
2017-01-20T07:50:31.101Z,1036.9
2017-01-20T07:51:34.047Z,1036.9
2017-01-20T07:52:36.998Z,1036.9
2017-01-20T07:53:39.948Z,1036.9
2017-01-20T07:54:43.065Z,1036.9
2017-01-20T07:55:46.519Z,1036.9
2017-01-20T07:56:49.465Z,1036.9
2017-01-20T07:57:52.414Z,1036.9
2017-01-20T07:58:55.869Z,1036.9
2017-01-20T07:59:58.813Z,1036.9
2017-01-20T08:01:01.755Z,1036.9
2017-01-20T08:02:04.707Z,1036.9
2017-01-20T08:03:08.154Z,1036.9
2017-01-20T08:04:11.098Z,1036.8
2017-01-20T08:05:14.045Z,1036.8
2017-01-20T08:06:17.491Z,1036.9
2017-01-20T08:07:20.431Z,1036.9
2017-01-20T08:08:23.382Z,1036.9
2017-01-20T08:09:26.330Z,1037
2017-01-20T08:10:29.780Z,1036.9
2017-01-20T08:11:32.728Z,1037
2017-01-20T08:12:35.678Z,1036.9
2017-01-20T08:13:39.129Z,1036.9
2017-01-20T08:14:42.073Z,1036.8
2017-01-20T08:15:45.020Z,1036.8
2017-01-20T08:16:47.973Z,1036.8
2017-01-20T08:17:51.422Z,1036.8
2017-01-20T08:18:54.367Z,1036.9
2017-01-20T08:19:57.313Z,1036.8
2017-01-20T08:21:00.769Z,1036.8
2017-01-20T08:22:03.719Z,1036.9
2017-01-20T08:23:06.669Z,1037
2017-01-20T08:24:09.618Z,1037
2017-01-20T08:25:13.063Z,1037
2017-01-20T08:26:16.011Z,1037
2017-01-20T08:27:18.959Z,1037
2017-01-20T08:28:22.412Z,1037
2017-01-20T08:29:25.352Z,1037
2017-01-20T08:30:28.299Z,1037
2017-01-20T08:31:31.239Z,1037
2017-01-20T08:32:34.713Z,1037.1
2017-01-20T08:33:37.669Z,1037.1
2017-01-20T08:34:40.617Z,1037.1
2017-01-20T08:35:44.064Z,1037.1
2017-01-20T08:36:47.013Z,1037.1
2017-01-20T08:37:49.961Z,1037.1
2017-01-20T08:39:56.315Z,1037.1
2017-01-20T08:40:59.259Z,1037
2017-01-20T08:42:02.209Z,1037
2017-01-20T08:43:05.656Z,1037
2017-01-20T08:44:08.600Z,1037
2017-01-20T08:45:11.551Z,1037
2017-01-20T08:46:14.563Z,1037
2017-01-20T08:47:18.009Z,1037
2017-01-20T08:48:20.958Z,1037
2017-01-20T08:49:23.904Z,1037
2017-01-20T08:50:27.355Z,1037
2017-01-20T08:51:30.300Z,1036.9
2017-01-20T08:52:33.254Z,1036.9
2017-01-20T08:53:36.702Z,1037
2017-01-20T08:55:42.561Z,1037
2017-01-20T08:56:45.504Z,1036.9
2017-01-20T08:57:48.952Z,1037
2017-01-20T08:58:51.901Z,1036.9
2017-01-20T08:59:54.845Z,1036.9
2017-01-20T09:00:58.292Z,1037
2017-01-20T09:02:01.240Z,1037
2017-01-20T09:03:04.192Z,1036.9
2017-01-20T09:04:07.212Z,1037
2017-01-20T09:05:10.666Z,1037
2017-01-20T09:06:13.617Z,1037
2017-01-20T09:08:19.972Z,1037
2017-01-20T09:09:22.915Z,1037
2017-01-20T09:10:25.887Z,1037
2017-01-20T09:11:29.331Z,1036.9
2017-01-20T09:12:32.286Z,1036.9
2017-01-20T09:13:35.233Z,1037
2017-01-20T09:14:38.171Z,1037
2017-01-20T09:15:41.627Z,1037.1
2017-01-20T09:16:44.570Z,1037.1
2017-01-20T09:17:47.523Z,1037.1
2017-01-20T09:18:50.976Z,1037.1
2017-01-20T09:19:54.087Z,1037.1
2017-01-20T09:20:57.030Z,1037.1
2017-01-20T09:21:59.977Z,1037.1
2017-01-20T09:24:06.339Z,1037.2
2017-01-20T09:25:09.454Z,1037.1
2017-01-20T09:26:12.399Z,1037.1
2017-01-20T09:27:15.849Z,1037.2
2017-01-20T09:28:18.800Z,1037.2
2017-01-20T09:29:21.745Z,1037.2
2017-01-20T09:30:24.689Z,1037.3
2017-01-20T09:31:28.146Z,1037.2
2017-01-20T09:32:31.094Z,1037.2
2017-01-20T09:33:34.040Z,1037.1
2017-01-20T09:34:37.489Z,1037.2
2017-01-20T09:35:40.436Z,1037.2
2017-01-20T09:36:43.380Z,1037.2
2017-01-20T09:37:46.830Z,1037.3
2017-01-20T09:38:49.778Z,1037.2
2017-01-20T09:39:52.722Z,1037.2
2017-01-20T09:40:56.175Z,1037.2
2017-01-20T09:43:02.031Z,1037.2
2017-01-20T09:44:05.478Z,1037.1
2017-01-20T09:45:08.425Z,1037.2
2017-01-20T09:46:11.374Z,1037.1
2017-01-20T09:47:14.836Z,1037.1
2017-01-20T09:48:17.791Z,1037.1
2017-01-20T09:49:20.739Z,1037
2017-01-20T09:50:23.679Z,1037
2017-01-20T09:51:27.126Z,1037
2017-01-20T09:52:30.072Z,1037
2017-01-20T09:53:33.025Z,1037
2017-01-20T09:54:36.475Z,1037.1
2017-01-20T09:55:39.422Z,1037.1
2017-01-20T09:56:42.372Z,1037.1
2017-01-20T09:57:45.818Z,1037.1
2017-01-20T09:58:48.765Z,1037.1
2017-01-20T09:59:51.709Z,1037.1
2017-01-20T10:00:55.154Z,1037
2017-01-20T10:01:58.101Z,1037
2017-01-20T10:03:01.050Z,1037
2017-01-20T10:04:04.501Z,1037.1
2017-01-20T10:05:07.444Z,1037.1
2017-01-20T10:06:10.389Z,1037.1
2017-01-20T10:07:13.843Z,1037.1
2017-01-20T10:08:16.790Z,1037
2017-01-20T10:09:19.734Z,1037.1
2017-01-20T10:10:23.182Z,1037
2017-01-20T10:11:26.131Z,1037
2017-01-20T10:12:29.080Z,1037
2017-01-20T10:13:32.529Z,1037
2017-01-20T10:14:35.473Z,1036.9
2017-01-20T10:15:38.415Z,1037
2017-01-20T10:16:41.867Z,1037
2017-01-20T10:17:44.813Z,1037
2017-01-20T10:18:47.763Z,1037
2017-01-20T10:19:51.217Z,1037
2017-01-20T10:20:54.230Z,1037
2017-01-20T10:21:57.181Z,1037
2017-01-20T10:23:00.132Z,1036.9
2017-01-20T10:24:03.596Z,1037
2017-01-20T10:25:06.547Z,1037
2017-01-20T10:26:09.499Z,1036.9
2017-01-20T10:27:12.948Z,1036.9
2017-01-20T10:28:15.895Z,1036.9
2017-01-20T10:29:18.843Z,1036.9
2017-01-20T10:30:22.296Z,1036.9
2017-01-20T10:31:25.343Z,1036.9
2017-01-20T10:32:28.318Z,1036.8
2017-01-20T10:33:31.326Z,1036.8
2017-01-20T10:34:34.775Z,1036.9
2017-01-20T10:35:37.726Z,1036.8
2017-01-20T10:36:40.675Z,1036.8
2017-01-20T10:37:44.124Z,1036.8
2017-01-20T10:38:47.135Z,1036.8
2017-01-20T10:39:50.098Z,1036.8
2017-01-20T10:40:53.050Z,1036.8
2017-01-20T10:41:56.496Z,1036.7
2017-01-20T10:42:59.505Z,1036.7
2017-01-20T10:44:02.453Z,1036.7
2017-01-20T10:45:05.902Z,1036.7
2017-01-20T10:46:08.850Z,1036.7
2017-01-20T10:47:11.803Z,1036.7
2017-01-20T10:49:18.164Z,1036.6
2017-01-20T10:50:21.111Z,1036.7
2017-01-20T10:51:24.562Z,1036.6
2017-01-20T10:52:27.513Z,1036.6
2017-01-20T10:53:30.457Z,1036.7
2017-01-20T10:54:33.911Z,1036.6
2017-01-20T10:55:36.858Z,1036.6
2017-01-20T10:56:39.802Z,1036.7
2017-01-20T10:57:43.258Z,1036.7
2017-01-20T10:58:46.208Z,1036.7
2017-01-20T10:59:49.157Z,1036.7
2017-01-20T11:00:52.608Z,1036.8
2017-01-20T11:01:55.728Z,1036.7
2017-01-20T11:02:58.672Z,1036.7
2017-01-20T11:04:02.122Z,1036.7
2017-01-20T11:06:07.974Z,1036.7
2017-01-20T11:07:11.427Z,1036.7
2017-01-20T11:08:14.371Z,1036.7
2017-01-20T11:09:17.326Z,1036.7
2017-01-20T11:10:20.782Z,1036.7
2017-01-20T11:11:23.730Z,1036.7
2017-01-20T11:12:26.676Z,1036.7
2017-01-20T11:13:30.132Z,1036.7
2017-01-20T11:14:33.073Z,1036.6
2017-01-20T11:15:36.022Z,1036.6
2017-01-20T11:17:42.376Z,1036.6
2017-01-20T11:18:45.828Z,1036.6
2017-01-20T11:19:48.774Z,1036.6
2017-01-20T11:20:51.720Z,1036.5
2017-01-20T11:21:55.172Z,1036.5
2017-01-20T11:22:58.115Z,1036.5
2017-01-20T11:24:01.060Z,1036.4
2017-01-20T11:25:04.514Z,1036.4
2017-01-20T11:26:07.473Z,1036.4
2017-01-20T11:27:10.422Z,1036.4
2017-01-20T11:28:13.876Z,1036.3
2017-01-20T11:29:16.848Z,1036.3
2017-01-20T11:30:19.794Z,1036.4
2017-01-20T11:31:23.242Z,1036.4
2017-01-20T11:32:26.186Z,1036.4
2017-01-20T11:33:29.132Z,1036.3
2017-01-20T11:34:32.580Z,1036.4
2017-01-20T11:35:35.526Z,1036.3
2017-01-20T11:36:38.476Z,1036.3
2017-01-20T11:37:41.929Z,1036.3
2017-01-20T11:38:44.878Z,1036.2
2017-01-20T11:39:48.336Z,1036.3
2017-01-20T11:40:51.282Z,1036.2
2017-01-20T11:41:54.231Z,1036.2
2017-01-20T11:44:00.585Z,1036.1
2017-01-20T11:45:03.532Z,1036.1
2017-01-20T11:46:06.978Z,1036.1
2017-01-20T11:47:09.934Z,1036.1
2017-01-20T11:48:12.881Z,1036.1
2017-01-20T11:49:16.329Z,1036
2017-01-20T11:50:19.281Z,1036.1
2017-01-20T11:51:22.731Z,1036
2017-01-20T11:52:25.674Z,1036
2017-01-20T11:53:28.618Z,1036
2017-01-20T11:54:32.068Z,1036
2017-01-20T11:55:35.020Z,1036
2017-01-20T11:56:37.969Z,1036
2017-01-20T11:57:41.419Z,1036
2017-01-20T11:58:44.375Z,1035.9
2017-01-20T11:59:47.321Z,1035.8
2017-01-20T12:00:50.768Z,1035.8
2017-01-20T12:01:53.716Z,1035.8
2017-01-20T12:02:57.162Z,1035.8
2017-01-20T12:04:00.105Z,1035.8
2017-01-20T12:05:03.061Z,1035.8
2017-01-20T12:06:06.580Z,1035.7
2017-01-20T12:07:09.549Z,1035.8
2017-01-20T12:08:12.496Z,1035.8
2017-01-20T12:09:15.945Z,1035.8
2017-01-20T12:10:18.896Z,1035.8
2017-01-20T12:11:21.840Z,1035.8
2017-01-20T12:12:25.290Z,1035.8
2017-01-20T12:13:28.232Z,1035.8
2017-01-20T12:14:31.186Z,1035.8
2017-01-20T12:15:34.632Z,1035.8
2017-01-20T12:16:37.580Z,1035.8
2017-01-20T12:17:40.528Z,1035.7
2017-01-20T12:18:43.978Z,1035.7
2017-01-20T12:19:46.922Z,1035.8
2017-01-20T12:20:50.374Z,1035.7
2017-01-20T12:21:53.323Z,1035.7
2017-01-20T12:22:56.273Z,1035.7
2017-01-20T12:23:59.726Z,1035.7
2017-01-20T12:25:02.670Z,1035.6
2017-01-20T12:26:05.621Z,1035.7
2017-01-20T12:27:09.136Z,1035.7
2017-01-20T12:28:12.082Z,1035.7
2017-01-20T12:29:15.031Z,1035.7
2017-01-20T12:30:18.540Z,1035.6
2017-01-20T12:31:21.485Z,1035.6
2017-01-20T12:32:24.436Z,1035.6
2017-01-20T12:33:27.887Z,1035.6
2017-01-20T12:34:30.834Z,1035.6
2017-01-20T12:35:34.280Z,1035.6
2017-01-20T12:36:37.221Z,1035.6
2017-01-20T12:37:40.167Z,1035.6
2017-01-20T12:38:43.623Z,1035.6
2017-01-20T12:39:46.576Z,1035.7
2017-01-20T12:40:49.523Z,1035.7
2017-01-20T12:41:52.977Z,1035.7
2017-01-20T12:42:55.924Z,1035.6
2017-01-20T12:43:58.872Z,1035.7
2017-01-20T12:45:02.323Z,1035.7
2017-01-20T12:46:05.274Z,1035.7
2017-01-20T12:48:11.636Z,1035.6
2017-01-20T12:49:14.579Z,1035.6
2017-01-20T12:50:18.027Z,1035.6
2017-01-20T12:51:20.973Z,1035.6
2017-01-20T12:52:23.985Z,1035.5
2017-01-20T12:53:27.436Z,1035.5
2017-01-20T12:54:30.388Z,1035.5
2017-01-20T12:55:33.835Z,1035.5
2017-01-20T12:56:36.786Z,1035.5
2017-01-20T12:57:39.738Z,1035.5
2017-01-20T12:58:43.190Z,1035.5
2017-01-20T12:59:46.301Z,1035.4
2017-01-20T13:00:49.252Z,1035.4
2017-01-20T13:01:52.192Z,1035.4
2017-01-20T13:02:55.647Z,1035.3
2017-01-20T13:03:58.603Z,1035.3
2017-01-20T13:05:01.545Z,1035.3
2017-01-20T13:06:04.996Z,1035.3
2017-01-20T13:07:07.940Z,1035.3
2017-01-20T13:08:11.386Z,1035.4
2017-01-20T13:09:14.330Z,1035.4
2017-01-20T13:10:17.273Z,1035.4
2017-01-20T13:12:23.635Z,1035.4
2017-01-20T13:13:27.093Z,1035.4
2017-01-20T13:14:30.039Z,1035.3
2017-01-20T13:15:32.989Z,1035.4
2017-01-20T13:16:36.440Z,1035.4
2017-01-20T13:17:39.391Z,1035.4
2017-01-20T13:18:42.335Z,1035.4
2017-01-20T13:19:45.785Z,1035.4
2017-01-20T13:20:48.732Z,1035.4
2017-01-20T13:21:52.180Z,1035.3
2017-01-20T13:22:55.127Z,1035.4
2017-01-20T13:23:58.078Z,1035.4
2017-01-20T13:25:01.533Z,1035.4
2017-01-20T13:26:04.477Z,1035.4
2017-01-20T13:27:07.423Z,1035.3
2017-01-20T13:28:10.876Z,1035.4
2017-01-20T13:29:13.831Z,1035.4
2017-01-20T13:30:16.813Z,1035.4
2017-01-20T13:31:20.261Z,1035.4
2017-01-20T13:32:23.209Z,1035.4
2017-01-20T13:33:26.658Z,1035.4
2017-01-20T13:34:29.608Z,1035.3
2017-01-20T13:35:32.557Z,1035.3
2017-01-20T13:36:36.020Z,1035.4
2017-01-20T13:37:38.964Z,1035.3
2017-01-20T13:38:41.912Z,1035.4
2017-01-20T13:39:45.362Z,1035.4
2017-01-20T13:40:48.308Z,1035.4
2017-01-20T13:41:51.756Z,1035.3